X  Close Metar Aviation Weather Data     EGGD Bristol Airport
Temperature
10°C Temperature
9°C Dewpoint
94% Humidity



Wind
6 MPH
10 KM/H
3 M/S
5 KTS



310°
NW
Current Conditions

Partly Cloudy Partly Cloudy
Pressure 1024.92 (hPa) - 30.27 (inHg)
Visibility 6.2 (mile) - 10 (km)
Airport
Airport-code EGGD

Location: Bristol Airport
Distance: 11 (mi)

Metar:
EGGD 270550Z AUTO 31005KT 270V350 9999 FEW018 10/09 Q1025

Time: 27-05-2022 06:50 BST